Main page
METAR-TAF:

METAR-TAF

Airports :

Valencia, Spain

Valencia Airport

latitude: 39-30N, longitude: 000-28W, elevation: 69 m

Current weather observation

The report was made 20 minutes ago, at 07:00 UTC
Wind 1 kt from variable directions
Temperature 3°C
Humidity 81%
Pressure 1017 hPa
Visibility 10 km or more
Few clouds at a height of 3000 ft

METAR: LEVC 220700Z VRB01KT 9999 FEW030 03/00 Q1017 NOSIG

Time: 08:20 (07:20 UTC)

Forecast

The report was made 2 hours and 20 minutes ago, at 05:00 UTC
Forecast valid from 22 at 06 UTC to 23 at 06 UTC
Wind 3 kt from variable directions
Visibility 10 km or more
Few clouds at a height of 3000 ft
Temporary
from 22 at 13 UTC to 22 at 17 UTC
Wind 8 kt from the East/Southeast

TAF: LEVC 220500Z 2206/2306 VRB03KT 9999 FEW030 TX21/2212Z TN03/2206Z TEMPO 2213/2217 12008KT

Weather observations and forecasts of more than 4000 airports (METAR and TAF reports).

The available stations are represented by yellow and red dots on the map.

Hover mouse over dot to see the name of the station.

Then click to see weather observations and forecasts.

To change the map : click on the green buttons with a black cross to zoom in, on the green button with a dash to zoom out, or on the green arrows for adjacent maps.


METAR-TAF: